Time;durP1;ratioP1;P1;durP2;ratioP2;P2;SDS_P1;SDS_P2;PMS_P1;PMS_P2;Temp;Humidity;BMP_temperature;BMP_pressure;BME280_temperature;BME280_humidity;BME280_pressure;Samples;Min_cycle;Max_cycle;Signal;HPM_P1;HPM_P2
2021/04/19 00:01:33;;;;;;;22.97;16.30;;;10.00;98.30;;;;;;5122132;23;20462;-84
2021/04/19 00:03:39;;;;;;;25.13;16.47;;;9.90;98.30;;;;;;5129042;23;20482;-83
2021/04/19 00:05:41;;;;;;;26.17;15.70;;;9.80;98.30;;;;;;5121118;23;20480;-83
2021/04/19 00:07:43;;;;;;;24.80;17.53;;;9.70;98.30;;;;;;5119400;23;20436;-83
2021/04/19 00:09:45;;;;;;;26.17;16.00;;;9.70;98.30;;;;;;5119679;23;20728;-82
2021/04/19 00:11:47;;;;;;;21.97;16.07;;;9.60;98.30;;;;;;5120892;23;20985;-83
2021/04/19 00:13:50;;;;;;;27.00;17.30;;;9.60;98.30;;;;;;5120541;23;20535;-82
2021/04/19 00:15:52;;;;;;;21.40;16.10;;;9.50;98.30;;;;;;5130596;23;20424;-83
2021/04/19 00:17:54;;;;;;;25.47;18.70;;;9.40;98.30;;;;;;5121734;23;20465;-83
2021/04/19 00:19:57;;;;;;;24.70;16.57;;;9.40;98.30;;;;;;5123185;23;20432;-83
2021/04/19 00:21:59;;;;;;;26.57;17.30;;;9.40;98.30;;;;;;5124357;23;20963;-83
2021/04/19 00:24:01;;;;;;;27.43;17.97;;;9.30;98.30;;;;;;5124828;23;20429;-83
2021/04/19 00:26:03;;;;;;;23.10;17.40;;;9.40;98.30;;;;;;5132469;23;20432;-82
2021/04/19 00:28:05;;;;;;;23.37;17.27;;;9.40;98.30;;;;;;5124354;23;20872;-83
2021/04/19 00:30:09;;;;;;;21.13;17.27;;;9.50;98.30;;;;;;5131337;23;20450;-83
2021/04/19 00:32:11;;;;;;;28.60;18.07;;;9.50;98.30;;;;;;5132622;23;20424;-83
2021/04/19 00:34:13;;;;;;;22.87;16.47;;;9.50;98.30;;;;;;5132947;23;20512;-83
2021/04/19 00:36:16;;;;;;;27.30;17.60;;;9.30;98.30;;;;;;5124118;23;21226;-83
2021/04/19 00:38:18;;;;;;;23.90;16.80;;;9.30;98.30;;;;;;5132534;23;20455;-83
2021/04/19 00:40:21;;;;;;;23.70;17.97;;;9.30;98.30;;;;;;5124307;23;20462;-83
2021/04/19 00:42:24;;;;;;;25.63;18.10;;;9.40;98.30;;;;;;5124426;23;20454;-82
2021/04/19 00:44:26;;;;;;;25.97;18.20;;;9.30;98.30;;;;;;5124855;23;20488;-83
2021/04/19 00:46:28;;;;;;;29.10;20.63;;;9.30;98.30;;;;;;5123572;23;20453;-83
2021/04/19 00:48:31;;;;;;;30.53;17.73;;;9.30;98.30;;;;;;5124191;23;20480;-83
2021/04/19 00:50:34;;;;;;;31.73;18.43;;;9.20;98.30;;;;;;5126375;23;20961;-83
2021/04/19 00:52:53;;;;;;;24.80;17.73;;;9.20;98.30;;;;;;5123958;23;20432;-84
2021/04/19 00:54:58;;;;;;;32.50;20.57;;;9.30;98.30;;;;;;5123371;23;20509;-83
2021/04/19 00:57:08;;;;;;;25.37;17.83;;;9.20;98.30;;;;;;5122495;23;20431;-83
2021/04/19 00:59:10;;;;;;;27.07;18.67;;;9.10;98.30;;;;;;5122216;23;20449;-83
2021/04/19 01:01:13;;;;;;;27.63;18.07;;;9.00;98.30;;;;;;5130940;23;20453;-83
2021/04/19 01:03:15;;;;;;;29.43;19.47;;;8.90;98.30;;;;;;5122933;23;20464;-84
2021/04/19 01:05:21;;;;;;;30.30;19.20;;;8.90;98.30;;;;;;5122701;23;20432;-83
2021/04/19 01:07:23;;;;;;;28.33;18.87;;;8.90;98.30;;;;;;5121110;23;20729;-83
2021/04/19 01:09:26;;;;;;;28.70;19.17;;;9.10;98.30;;;;;;5123193;23;20985;-83
2021/04/19 01:11:27;;;;;;;29.73;20.77;;;9.20;98.30;;;;;;5127251;23;20428;-83
2021/04/19 01:13:29;;;;;;;36.07;25.30;;;9.20;98.30;;;;;;5127579;23;20432;-82
2021/04/19 01:15:32;;;;;;;35.43;20.40;;;9.10;98.30;;;;;;5126480;23;20449;-83
2021/04/19 01:17:34;;;;;;;28.33;21.57;;;8.90;98.30;;;;;;5126044;23;20455;-82
2021/04/19 01:19:36;;;;;;;27.17;19.37;;;8.80;98.30;;;;;;5124370;23;20468;-83
2021/04/19 01:21:39;;;;;;;27.70;19.83;;;8.90;98.30;;;;;;5126673;23;20424;-83
2021/04/19 01:23:40;;;;;;;28.03;18.57;;;8.90;98.30;;;;;;5125939;23;20973;-83
2021/04/19 01:25:43;;;;;;;25.33;19.97;;;8.90;98.30;;;;;;5134362;23;20453;-83
2021/04/19 01:27:45;;;;;;;29.60;18.67;;;8.80;98.30;;;;;;5126697;23;20460;-83
2021/04/19 01:29:47;;;;;;;24.90;18.77;;;8.90;98.30;;;;;;5134812;23;20449;-83
2021/04/19 01:31:49;;;;;;;26.90;19.07;;;9.00;98.30;;;;;;5126237;23;20759;-83
2021/04/19 01:33:51;;;;;;;34.13;20.13;;;9.10;98.30;;;;;;5123877;23;20480;-83
2021/04/19 01:35:54;;;;;;;54.03;36.80;;;9.10;98.30;;;;;;5124036;23;20450;-83
2021/04/19 01:37:58;;;;;;;47.63;27.70;;;9.10;98.30;;;;;;5125565;23;20429;-83
2021/04/19 01:39:59;;;;;;;53.20;36.50;;;9.00;98.30;;;;;;5125446;23;20462;-83
2021/04/19 01:42:01;;;;;;;32.40;22.20;;;9.10;98.30;;;;;;5126379;23;20737;-83
2021/04/19 01:44:03;;;;;;;33.60;20.10;;;9.10;98.30;;;;;;5126004;23;20466;-84
2021/04/19 01:46:05;;;;;;;26.60;18.93;;;9.20;98.30;;;;;;5132989;23;20812;-84
2021/04/19 01:48:08;;;;;;;29.33;19.97;;;9.30;98.30;;;;;;5124284;23;20548;-83
2021/04/19 01:50:13;;;;;;;27.20;18.30;;;9.30;98.30;;;;;;5126046;23;20460;-83
2021/04/19 01:52:15;;;;;;;32.30;21.07;;;9.30;98.30;;;;;;5122827;23;20890;-84
2021/04/19 01:54:18;;;;;;;30.13;19.63;;;9.30;98.30;;;;;;5126796;23;20452;-83
2021/04/19 01:56:20;;;;;;;29.37;20.40;;;9.20;98.30;;;;;;5120496;23;20471;-83
2021/04/19 01:58:25;;;;;;;31.87;21.27;;;9.10;98.30;;;;;;5125294;23;20435;-83
2021/04/19 02:00:28;;;;;;;34.43;20.73;;;9.00;98.30;;;;;;5120004;23;20454;-83
2021/04/19 02:02:37;;;;;;;31.40;19.97;;;9.00;98.30;;;;;;5118945;23;20532;-83
2021/04/19 02:04:46;;;;;;;28.43;20.60;;;9.10;98.30;;;;;;5128637;23;20499;-83
2021/04/19 02:06:59;;;;;;;27.83;19.27;;;9.10;98.30;;;;;;5124880;23;20795;-83
2021/04/19 02:09:08;;;;;;;31.27;20.50;;;9.00;98.30;;;;;;5124741;23;20727;-83
2021/04/19 02:11:20;;;;;;;33.37;21.93;;;9.00;98.30;;;;;;5125310;23;20436;-83
2021/04/19 02:13:36;;;;;;;34.37;22.10;;;9.00;98.30;;;;;;5124766;23;20432;-83
2021/04/19 02:15:46;;;;;;;26.73;20.33;;;9.00;98.30;;;;;;5123995;23;20916;-83
2021/04/19 02:17:57;;;;;;;29.13;20.07;;;9.00;98.30;;;;;;5123954;23;20456;-83
2021/04/19 02:20:09;;;;;;;33.43;21.60;;;8.90;98.30;;;;;;5121210;23;20438;-84
2021/04/19 02:22:16;;;;;;;25.80;19.37;;;8.80;98.30;;;;;;5121997;23;20921;-83
2021/04/19 02:24:21;;;;;;;29.07;20.63;;;8.80;98.30;;;;;;5128836;23;20425;-83
2021/04/19 02:26:29;;;;;;;32.23;21.17;;;8.80;98.30;;;;;;5121930;23;20423;-83
2021/04/19 02:28:33;;;;;;;28.80;20.80;;;8.90;98.30;;;;;;5123013;23;20925;-84
2021/04/19 02:30:40;;;;;;;31.60;21.80;;;9.00;98.30;;;;;;5125267;23;20475;-84
2021/04/19 02:32:46;;;;;;;31.03;19.90;;;8.90;98.30;;;;;;5125245;23;20498;-84
2021/04/19 02:34:52;;;;;;;29.63;21.27;;;8.90;98.30;;;;;;5118076;23;20439;-84
2021/04/19 02:36:56;;;;;;;31.37;20.60;;;9.00;98.30;;;;;;5125198;23;20449;-84
2021/04/19 02:39:00;;;;;;;30.40;21.00;;;9.00;98.30;;;;;;5116756;23;20428;-83
2021/04/19 02:41:03;;;;;;;84.00;51.70;;;9.00;98.30;;;;;;5117484;23;20428;-84
2021/04/19 02:43:07;;;;;;;75.67;45.43;;;8.90;98.30;;;;;;5128455;23;20427;-84
2021/04/19 02:45:33;;;;;;;50.17;29.70;;;9.10;98.30;;;;;;5130965;23;20452;-84
2021/04/19 02:47:35;;;;;;;29.03;22.40;;;9.20;98.30;;;;;;5129734;23;20500;-84
2021/04/19 02:49:38;;;;;;;30.63;21.03;;;9.10;98.30;;;;;;5133164;23;20420;-83
2021/04/19 02:51:41;;;;;;;37.13;22.37;;;9.10;98.30;;;;;;5125162;23;20457;-84
2021/04/19 02:53:45;;;;;;;28.80;20.70;;;9.00;98.30;;;;;;5125049;23;20488;-84
2021/04/19 02:55:48;;;;;;;95.40;53.93;;;9.10;98.30;;;;;;5124615;23;20946;-84
2021/04/19 02:57:53;;;;;;;75.17;45.03;;;9.00;98.30;;;;;;5124758;23;20438;-83
2021/04/19 02:59:58;;;;;;;47.67;32.63;;;9.10;98.30;;;;;;5121833;23;21041;-83
2021/04/19 03:02:07;;;;;;;41.97;29.33;;;9.00;98.30;;;;;;5130863;23;20444;-83
2021/04/19 03:04:14;;;;;;;34.80;22.83;;;9.00;98.30;;;;;;5130190;23;20449;-83
2021/04/19 03:06:17;;;;;;;30.03;21.13;;;8.90;98.30;;;;;;5129956;23;20456;-83
2021/04/19 03:08:22;;;;;;;42.77;22.90;;;9.00;98.30;;;;;;5130371;23;21001;-83
2021/04/19 03:10:26;;;;;;;45.80;28.83;;;8.70;98.30;;;;;;5131686;23;20442;-83
2021/04/19 03:12:30;;;;;;;45.87;29.53;;;8.70;98.30;;;;;;5131185;23;20434;-83
2021/04/19 03:14:36;;;;;;;44.90;29.20;;;8.60;98.30;;;;;;5122391;23;20463;-84
2021/04/19 03:16:44;;;;;;;37.13;24.57;;;8.70;98.30;;;;;;5122937;23;20533;-83
2021/04/19 03:18:47;;;;;;;36.07;23.73;;;8.60;98.30;;;;;;5123411;23;20507;-83
2021/04/19 03:21:05;;;;;;;39.13;24.03;;;8.70;98.30;;;;;;5133465;23;20435;-83
2021/04/19 03:23:07;;;;;;;41.40;24.87;;;8.80;98.30;;;;;;5125029;23;20489;-83
2021/04/19 03:25:12;;;;;;;40.57;24.70;;;8.80;98.30;;;;;;5133319;23;20448;-83
2021/04/19 03:27:17;;;;;;;39.27;24.97;;;8.80;98.30;;;;;;5132353;23;20527;-83
2021/04/19 03:29:21;;;;;;;41.20;25.17;;;8.80;98.30;;;;;;5130479;23;20861;-83
2021/04/19 03:31:27;;;;;;;45.43;25.40;;;8.70;98.30;;;;;;5123683;23;20424;-83
2021/04/19 03:33:31;;;;;;;52.63;26.67;;;8.50;98.30;;;;;;5131290;23;20976;-83
2021/04/19 03:35:36;;;;;;;35.77;24.80;;;8.50;98.30;;;;;;5131717;23;20777;-83
2021/04/19 03:37:40;;;;;;;44.43;25.70;;;8.60;98.30;;;;;;5132258;23;20416;-84
2021/04/19 03:39:46;;;;;;;54.70;26.83;;;8.50;98.30;;;;;;5124592;23;20519;-83
2021/04/19 03:41:51;;;;;;;43.60;25.90;;;8.50;98.30;;;;;;5132829;23;20456;-83
2021/04/19 03:43:57;;;;;;;52.00;26.23;;;8.40;98.30;;;;;;5125345;23;20514;-84
2021/04/19 03:46:03;;;;;;;46.40;25.47;;;8.50;98.30;;;;;;5133341;23;20428;-83
2021/04/19 03:48:10;;;;;;;58.73;23.63;;;8.50;98.30;;;;;;5132832;23;20462;-84
2021/04/19 03:50:14;;;;;;;66.10;24.70;;;8.30;98.30;;;;;;5125375;23;20424;-83
2021/04/19 03:52:21;;;;;;;38.73;21.90;;;8.20;98.30;;;;;;5125597;23;20453;-83
2021/04/19 03:54:27;;;;;;;49.03;24.30;;;8.20;98.30;;;;;;5132001;23;20902;-83
2021/04/19 03:56:33;;;;;;;52.10;23.57;;;8.10;98.30;;;;;;5122836;23;20488;-83
2021/04/19 03:58:35;;;;;;;48.53;25.70;;;7.80;98.30;;;;;;5133518;23;20457;-83
2021/04/19 04:00:40;;;;;;;48.60;27.17;;;8.10;98.30;;;;;;5128032;23;20460;-84
2021/04/19 04:02:47;;;;;;;50.87;25.33;;;8.30;98.30;;;;;;5138998;23;20404;-83
2021/04/19 04:04:51;;;;;;;50.27;25.73;;;8.40;98.30;;;;;;5124730;23;20485;-84
2021/04/19 04:06:54;;;;;;;44.57;26.53;;;8.40;98.30;;;;;;5124843;23;20500;-84
2021/04/19 04:08:58;;;;;;;41.70;27.13;;;8.40;98.30;;;;;;5124753;23;21509;-84
2021/04/19 04:11:01;;;;;;;64.83;28.00;;;8.40;98.30;;;;;;5126398;23;20445;-84
2021/04/19 04:13:03;;;;;;;45.90;27.90;;;8.40;98.30;;;;;;5141005;23;20423;-84
2021/04/19 04:15:05;;;;;;;44.37;26.43;;;8.40;98.30;;;;;;5139016;23;20488;-84
2021/04/19 04:17:13;;;;;;;39.60;24.43;;;8.40;98.30;;;;;;5137110;23;20445;-84
2021/04/19 04:19:17;;;;;;;43.77;25.10;;;8.40;98.30;;;;;;5132388;23;20454;-84
2021/04/19 04:21:19;;;;;;;41.77;24.83;;;8.50;98.30;;;;;;5133543;23;20424;-84
2021/04/19 04:23:22;;;;;;;41.70;24.20;;;8.50;98.30;;;;;;5126643;23;20783;-84
2021/04/19 04:25:25;;;;;;;53.37;23.40;;;8.50;98.30;;;;;;5128400;23;20541;-84
2021/04/19 04:27:27;;;;;;;44.60;24.10;;;8.50;98.30;;;;;;5126890;23;20823;-84
2021/04/19 04:29:29;;;;;;;44.83;24.60;;;8.50;98.30;;;;;;5126345;23;20508;-83
2021/04/19 04:31:31;;;;;;;52.93;24.23;;;8.40;98.30;;;;;;5125986;23;20501;-84
2021/04/19 04:33:33;;;;;;;47.33;22.53;;;8.40;98.30;;;;;;5134645;23;20423;-83
2021/04/19 04:35:37;;;;;;;46.50;23.63;;;8.40;98.30;;;;;;5126030;23;20514;-83
2021/04/19 04:37:39;;;;;;;40.20;22.90;;;8.40;98.30;;;;;;5133043;23;20431;-83
2021/04/19 04:39:42;;;;;;;35.30;21.63;;;8.40;98.30;;;;;;5125735;23;20455;-84
2021/04/19 04:41:43;;;;;;;36.90;22.33;;;8.40;98.30;;;;;;5126330;23;20449;-83
2021/04/19 04:43:48;;;;;;;39.07;22.03;;;8.40;98.30;;;;;;5133304;23;20446;-83
2021/04/19 04:45:56;;;;;;;45.37;22.77;;;8.30;98.30;;;;;;5122716;23;20462;-83
2021/04/19 04:48:01;;;;;;;54.47;20.30;;;8.40;98.30;;;;;;5122859;23;20467;-83
2021/04/19 04:50:08;;;;;;;51.10;20.70;;;8.20;98.30;;;;;;5125249;23;20504;-83
2021/04/19 04:52:13;;;;;;;47.13;20.43;;;8.00;98.30;;;;;;5124622;23;20458;-83
2021/04/19 04:54:17;;;;;;;50.13;22.23;;;8.00;98.30;;;;;;5124148;23;20472;-83
2021/04/19 04:56:21;;;;;;;58.83;21.70;;;7.90;98.30;;;;;;5123283;23;20577;-83
2021/04/19 04:58:24;;;;;;;68.57;21.23;;;8.00;98.30;;;;;;5124529;23;20460;-83
2021/04/19 05:00:27;;;;;;;58.53;22.07;;;8.10;98.30;;;;;;5133499;23;20505;-83
2021/04/19 05:02:30;;;;;;;44.27;19.17;;;8.10;98.30;;;;;;5134353;23;20492;-83
2021/04/19 05:04:33;;;;;;;53.40;22.20;;;8.10;98.30;;;;;;5126256;23;20542;-84
2021/04/19 05:06:35;;;;;;;53.13;21.67;;;8.00;98.30;;;;;;5128436;23;20966;-84
2021/04/19 05:08:38;;;;;;;47.30;20.67;;;7.80;98.30;;;;;;5122821;23;20463;-84
2021/04/19 05:10:41;;;;;;;45.40;19.90;;;7.80;98.30;;;;;;5123561;23;20424;-83
2021/04/19 05:12:44;;;;;;;47.33;20.10;;;8.00;98.30;;;;;;5131468;23;20457;-83
2021/04/19 05:14:58;;;;;;;47.23;20.60;;;7.90;98.30;;;;;;5123011;23;20513;-83
2021/04/19 05:17:00;;;;;;;50.03;21.47;;;7.70;98.30;;;;;;5131716;23;20461;-83
2021/04/19 05:19:04;;;;;;;46.90;20.80;;;7.60;98.30;;;;;;5123032;23;20484;-83
2021/04/19 05:21:06;;;;;;;42.47;21.50;;;7.80;98.30;;;;;;5131476;23;20454;-83
2021/04/19 05:23:08;;;;;;;44.87;21.83;;;7.80;98.30;;;;;;5122156;23;20459;-83
2021/04/19 05:25:11;;;;;;;41.93;21.47;;;7.80;98.30;;;;;;5122013;23;20468;-83
2021/04/19 05:27:14;;;;;;;46.23;20.50;;;7.80;98.30;;;;;;5122503;23;20457;-83
2021/04/19 05:29:17;;;;;;;60.80;23.17;;;7.90;98.30;;;;;;5122122;23;20477;-83
2021/04/19 05:31:19;;;;;;;45.53;21.30;;;8.00;98.30;;;;;;5124319;23;20525;-83
2021/04/19 05:33:21;;;;;;;45.33;21.07;;;8.20;98.30;;;;;;5123130;23;20947;-83
2021/04/19 05:35:23;;;;;;;51.03;21.53;;;8.30;98.30;;;;;;5123396;23;20453;-83
2021/04/19 05:37:25;;;;;;;50.33;20.50;;;8.20;98.30;;;;;;5123537;23;20463;-83
2021/04/19 05:39:28;;;;;;;50.33;20.37;;;8.30;98.30;;;;;;5123345;23;20450;-83
2021/04/19 05:41:30;;;;;;;35.00;18.90;;;8.20;98.30;;;;;;5124466;23;20967;-83
2021/04/19 05:43:32;;;;;;;42.53;19.47;;;8.30;98.30;;;;;;5122465;23;20783;-83
2021/04/19 05:45:36;;;;;;;41.20;18.90;;;8.20;98.30;;;;;;5130520;23;20477;-83
2021/04/19 05:47:38;;;;;;;40.50;18.83;;;8.30;98.30;;;;;;5123511;23;20450;-83
2021/04/19 05:49:41;;;;;;;33.87;18.77;;;8.30;98.30;;;;;;5124543;23;20454;-84
2021/04/19 05:51:44;;;;;;;37.03;20.10;;;8.50;98.30;;;;;;5134168;23;20456;-83
2021/04/19 05:53:50;;;;;;;52.53;19.93;;;8.50;98.30;;;;;;5124401;23;20504;-83
2021/04/19 05:55:55;;;;;;;35.27;19.37;;;8.50;98.30;;;;;;5124953;23;20457;-84
2021/04/19 05:58:04;;;;;;;48.83;20.20;;;8.60;98.30;;;;;;5125050;23;20574;-84
2021/04/19 06:00:10;;;;;;;41.97;21.73;;;8.60;98.30;;;;;;5125853;23;20493;-83
2021/04/19 06:02:16;;;;;;;36.30;21.57;;;8.70;98.30;;;;;;5133731;23;20480;-83
2021/04/19 06:04:27;;;;;;;35.17;20.63;;;8.60;98.30;;;;;;5125127;23;20489;-83
2021/04/19 06:06:37;;;;;;;34.63;18.60;;;8.50;98.30;;;;;;5129896;23;20492;-84
2021/04/19 06:08:43;;;;;;;49.93;20.87;;;8.70;98.30;;;;;;5128783;23;20432;-85
2021/04/19 06:10:48;;;;;;;44.07;21.07;;;8.80;98.30;;;;;;5135448;23;20419;-84
2021/04/19 06:12:54;;;;;;;40.90;21.60;;;8.90;98.30;;;;;;5133926;23;20452;-84
2021/04/19 06:15:02;;;;;;;34.93;20.50;;;9.10;98.30;;;;;;5125119;23;20454;-84
2021/04/19 06:17:07;;;;;;;37.93;21.10;;;9.20;98.30;;;;;;5133505;23;20469;-84
2021/04/19 06:19:13;;;;;;;27.10;18.40;;;9.00;98.30;;;;;;5131969;23;20453;-84
2021/04/19 06:21:15;;;;;;;35.27;20.73;;;8.90;98.30;;;;;;5132797;23;20432;-84
2021/04/19 06:23:17;;;;;;;34.33;19.93;;;8.90;98.30;;;;;;5125755;23;20453;-84
2021/04/19 06:25:20;;;;;;;33.27;20.03;;;8.90;98.30;;;;;;5124798;23;20428;-83
2021/04/19 06:27:23;;;;;;;31.07;19.97;;;8.90;98.30;;;;;;5125185;23;20464;-83
2021/04/19 06:29:26;;;;;;;38.63;22.17;;;9.00;98.30;;;;;;5125314;23;20454;-84
2021/04/19 06:31:28;;;;;;;41.77;19.57;;;9.10;98.30;;;;;;5124795;23;20435;-84
2021/04/19 06:33:32;;;;;;;35.57;19.40;;;9.20;98.30;;;;;;5124056;23;20432;-83
2021/04/19 06:35:35;;;;;;;36.00;20.43;;;9.10;98.30;;;;;;5121992;23;20432;-83
2021/04/19 06:37:37;;;;;;;40.27;19.70;;;9.30;98.30;;;;;;5124121;23;20425;-84
2021/04/19 06:39:39;;;;;;;42.83;20.57;;;9.20;98.30;;;;;;5122480;23;20495;-84
2021/04/19 06:41:42;;;;;;;40.53;19.87;;;9.20;98.30;;;;;;5123375;23;20428;-83
2021/04/19 06:43:45;;;;;;;36.30;20.13;;;9.00;98.30;;;;;;5123479;23;20449;-83
2021/04/19 06:45:47;;;;;;;39.37;19.30;;;8.90;98.30;;;;;;5123403;23;20727;-83
2021/04/19 06:47:51;;;;;;;36.13;20.67;;;8.90;98.30;;;;;;5123407;23;20464;-83
2021/04/19 06:49:55;;;;;;;34.90;19.33;;;8.80;98.30;;;;;;5123526;23;20498;-83
2021/04/19 06:51:58;;;;;;;32.30;18.33;;;8.90;98.30;;;;;;5120081;23;20438;-85
2021/04/19 06:54:00;;;;;;;30.33;18.37;;;9.10;98.30;;;;;;5126034;23;20467;-84
2021/04/19 06:56:04;;;;;;;32.33;18.50;;;9.20;98.30;;;;;;5131801;23;20424;-84
2021/04/19 06:58:07;;;;;;;32.47;19.57;;;9.40;98.30;;;;;;5112405;23;20780;-83
2021/04/19 07:00:10;;;;;;;29.97;19.17;;;9.60;98.30;;;;;;5120918;23;20456;-85
2021/04/19 07:02:20;;;;;;;31.70;19.93;;;9.70;98.30;;;;;;5118465;23;20435;-83
2021/04/19 07:04:28;;;;;;;35.80;20.13;;;9.80;98.30;;;;;;5118479;23;20509;-83
2021/04/19 07:06:33;;;;;;;32.83;20.23;;;9.80;98.30;;;;;;5126082;23;21158;-83
2021/04/19 07:08:44;;;;;;;33.40;21.10;;;9.80;98.30;;;;;;5119932;23;21106;-84
2021/04/19 07:10:48;;;;;;;31.00;18.33;;;9.90;98.30;;;;;;5120504;23;20525;-83
2021/04/19 07:12:54;;;;;;;28.90;18.97;;;9.90;98.30;;;;;;5130324;23;20463;-83
2021/04/19 07:14:57;;;;;;;34.93;17.47;;;10.00;98.30;;;;;;5118141;23;20432;-83
2021/04/19 07:16:59;;;;;;;29.50;17.97;;;9.90;98.30;;;;;;5118785;23;21258;-83
2021/04/19 07:19:02;;;;;;;40.53;18.17;;;9.80;98.30;;;;;;5117982;23;20553;-83
2021/04/19 07:21:08;;;;;;;35.80;18.47;;;9.80;98.30;;;;;;5126795;23;20473;-83
2021/04/19 07:23:10;;;;;;;31.10;18.93;;;9.80;98.30;;;;;;5126062;23;20453;-83
2021/04/19 07:25:13;;;;;;;32.00;19.57;;;9.70;98.30;;;;;;5126568;23;20454;-83
2021/04/19 07:27:18;;;;;;;38.60;18.27;;;9.70;98.30;;;;;;5126535;23;20514;-82
2021/04/19 07:29:21;;;;;;;29.60;17.57;;;9.60;98.30;;;;;;5118199;23;20512;-83
2021/04/19 07:31:23;;;;;;;34.63;18.33;;;9.60;98.30;;;;;;5119924;23;20504;-83
2021/04/19 07:33:31;;;;;;;27.10;16.37;;;9.60;98.30;;;;;;5118273;23;20829;-83
2021/04/19 07:35:34;;;;;;;29.13;17.57;;;9.80;98.30;;;;;;5117645;23;20809;-83
2021/04/19 07:37:36;;;;;;;30.47;17.03;;;9.90;98.30;;;;;;5118186;23;20532;-83
2021/04/19 07:39:41;;;;;;;23.60;16.50;;;10.00;98.30;;;;;;5118064;23;20500;-83
2021/04/19 07:41:45;;;;;;;25.50;18.17;;;10.10;98.30;;;;;;5118541;23;20525;-83
2021/04/19 07:43:49;;;;;;;24.47;16.70;;;10.10;98.30;;;;;;5118324;23;20450;-83
2021/04/19 07:46:02;;;;;;;22.97;16.77;;;10.20;98.30;;;;;;5118675;23;20457;-83
2021/04/19 07:48:33;;;;;;;25.20;15.77;;;10.30;98.30;;;;;;5126254;23;20895;-83
2021/04/19 07:50:35;;;;;;;30.53;17.30;;;10.30;98.30;;;;;;5117267;23;20453;-83
2021/04/19 07:52:51;;;;;;;26.77;17.87;;;10.20;98.30;;;;;;5118366;23;20454;-83
2021/04/19 07:55:05;;;;;;;25.50;17.97;;;10.10;98.30;;;;;;5126093;23;20448;-83
2021/04/19 07:57:11;;;;;;;24.57;16.70;;;10.20;98.30;;;;;;5125738;23;20445;-83
2021/04/19 07:59:24;;;;;;;27.30;17.67;;;10.20;98.30;;;;;;5118130;23;20433;-83
2021/04/19 08:01:26;;;;;;;27.87;17.47;;;10.30;98.30;;;;;;5126172;23;20453;-83
2021/04/19 08:04:05;;;;;;;25.97;16.57;;;10.40;98.30;;;;;;5124800;23;20450;-83
2021/04/19 08:08:44;;;;;;;25.63;16.40;;;10.60;98.30;;;;;;5124580;23;20449;-83
2021/04/19 08:10:49;;;;;;;22.07;16.80;;;10.60;98.30;;;;;;5125129;23;20449;-83
2021/04/19 08:13:01;;;;;;;31.17;19.00;;;10.60;98.30;;;;;;5125420;23;21212;-83
2021/04/19 08:15:08;;;;;;;27.53;17.00;;;10.70;98.30;;;;;;5124161;23;20450;-83
2021/04/19 08:17:12;;;;;;;25.93;16.73;;;10.60;98.30;;;;;;5117613;23;20462;-83
2021/04/19 08:19:14;;;;;;;26.10;16.37;;;10.40;98.30;;;;;;5113807;23;20465;-83
2021/04/19 08:21:25;;;;;;;23.30;16.13;;;10.40;98.30;;;;;;5114764;23;20507;-82
2021/04/19 08:23:27;;;;;;;25.67;16.83;;;10.40;98.30;;;;;;5117584;23;20454;-83
2021/04/19 08:25:29;;;;;;;25.53;18.37;;;10.70;98.30;;;;;;5131870;23;20456;-84
2021/04/19 08:27:31;;;;;;;28.90;18.63;;;10.70;98.30;;;;;;5132849;23;20452;-84
2021/04/19 08:29:42;;;;;;;25.67;17.13;;;10.90;98.30;;;;;;5125950;23;20560;-84
2021/04/19 08:31:44;;;;;;;26.27;17.50;;;11.00;98.30;;;;;;5129295;23;20470;-83
2021/04/19 08:33:48;;;;;;;26.40;17.33;;;11.10;98.30;;;;;;5123483;23;20449;-83
2021/04/19 08:35:53;;;;;;;28.43;18.20;;;11.10;98.30;;;;;;5125483;23;20445;-83
2021/04/19 08:37:57;;;;;;;24.70;18.50;;;11.10;98.30;;;;;;5126415;23;20446;-83
2021/04/19 08:40:00;;;;;;;26.07;18.03;;;11.20;98.30;;;;;;5134289;23;20846;-83
2021/04/19 08:42:04;;;;;;;26.67;16.70;;;11.20;98.30;;;;;;5126425;23;20469;-83
2021/04/19 08:44:06;;;;;;;25.60;16.80;;;11.30;98.30;;;;;;5133008;23;20521;-83
2021/04/19 08:46:11;;;;;;;23.43;16.97;;;11.30;98.30;;;;;;5121432;23;20582;-84
2021/04/19 08:48:14;;;;;;;24.23;18.20;;;11.30;98.30;;;;;;5115922;23;20469;-85
2021/04/19 08:50:21;;;;;;;23.47;16.13;;;11.40;98.30;;;;;;5116684;23;20450;-83
2021/04/19 08:52:23;;;;;;;22.60;15.60;;;11.50;98.30;;;;;;5117078;23;21041;-85
2021/04/19 08:54:25;;;;;;;24.23;18.17;;;11.50;98.30;;;;;;5126870;23;20481;-83
2021/04/19 08:56:27;;;;;;;25.33;16.80;;;11.40;98.30;;;;;;5125849;23;20959;-83
2021/04/19 08:58:33;;;;;;;20.50;15.30;;;11.50;98.30;;;;;;5125885;23;20756;-83
2021/04/19 09:00:37;;;;;;;23.40;16.50;;;11.60;98.30;;;;;;5125709;23;20464;-84
2021/04/19 09:02:40;;;;;;;24.57;16.90;;;11.90;98.30;;;;;;5127016;23;20472;-83
2021/04/19 09:05:00;;;;;;;23.73;16.03;;;12.20;98.30;;;;;;5124824;23;20485;-84
2021/04/19 09:07:03;;;;;;;23.27;16.30;;;12.40;98.30;;;;;;5127965;23;20540;-83
2021/04/19 09:09:05;;;;;;;25.80;16.97;;;12.40;98.30;;;;;;5136515;23;20453;-83
2021/04/19 09:11:07;;;;;;;24.43;17.90;;;12.40;98.30;;;;;;5127733;23;20446;-83
2021/04/19 09:13:24;;;;;;;23.17;17.47;;;12.40;98.30;;;;;;5126498;23;20477;-84
2021/04/19 09:15:29;;;;;;;22.33;16.50;;;12.40;98.30;;;;;;5125661;23;20477;-84
2021/04/19 09:17:32;;;;;;;20.70;15.83;;;12.50;98.30;;;;;;5135738;23;20461;-83
2021/04/19 09:19:39;;;;;;;20.50;15.57;;;12.40;98.30;;;;;;5128647;23;20454;-83
2021/04/19 09:21:47;;;;;;;19.53;15.63;;;12.50;98.30;;;;;;5121110;23;20464;-84
2021/04/19 09:23:55;;;;;;;20.17;15.00;;;12.80;98.30;;;;;;5127409;23;20780;-85
2021/04/19 09:26:00;;;;;;;19.37;15.67;;;13.20;98.30;;;;;;5124390;23;20477;-85
2021/04/19 09:28:02;;;;;;;20.37;17.30;;;13.40;98.30;;;;;;5118578;23;21200;-84
2021/04/19 09:30:26;;;;;;;16.20;13.83;;;13.50;98.30;;;;;;5133317;23;20449;-84
2021/04/19 09:32:29;;;;;;;18.63;14.20;;;13.60;98.30;;;;;;5122780;23;20533;-84
2021/04/19 09:34:48;;;;;;;18.73;14.00;;;13.50;98.30;;;;;;5124474;23;21038;-83
2021/04/19 09:36:51;;;;;;;17.27;14.00;;;13.10;98.30;;;;;;5117139;23;20461;-85
2021/04/19 09:38:53;;;;;;;19.00;14.63;;;13.20;98.30;;;;;;5119089;23;20529;-84
2021/04/19 09:40:57;;;;;;;18.17;14.97;;;13.30;98.30;;;;;;5121552;23;20461;-84
2021/04/19 09:43:05;;;;;;;16.93;13.57;;;13.70;98.30;;;;;;5121873;23;20836;-84
2021/04/19 09:45:08;;;;;;;17.40;14.57;;;14.20;98.30;;;;;;5118414;23;20454;-84
2021/04/19 09:47:10;;;;;;;19.30;14.50;;;14.80;98.30;;;;;;5118173;23;20870;-85
2021/04/19 09:49:13;;;;;;;19.10;14.87;;;15.20;98.30;;;;;;5118579;23;20461;-86
2021/04/19 09:51:21;;;;;;;18.93;15.20;;;15.70;98.30;;;;;;5131980;23;21101;-84
2021/04/19 09:53:23;;;;;;;16.37;13.73;;;16.10;98.30;;;;;;5121865;23;20489;-85
2021/04/19 09:55:25;;;;;;;18.77;15.13;;;16.20;98.30;;;;;;5130381;23;20496;-84
2021/04/19 09:57:28;;;;;;;17.10;13.83;;;16.50;98.30;;;;;;5124767;23;20449;-84
2021/04/19 09:59:36;;;;;;;15.60;14.00;;;16.50;98.30;;;;;;5128336;23;20454;-84
2021/04/19 10:01:38;;;;;;;16.63;14.10;;;16.40;98.30;;;;;;5136570;23;20488;-84
2021/04/19 10:03:46;;;;;;;16.40;14.10;;;16.40;98.30;;;;;;5127246;23;20464;-84
2021/04/19 10:05:50;;;;;;;15.80;14.20;;;16.40;98.30;;;;;;5128370;23;20491;-84
2021/04/19 10:07:53;;;;;;;15.53;13.53;;;16.80;98.30;;;;;;5128655;23;20457;-85
2021/04/19 10:09:56;;;;;;;14.60;13.20;;;17.00;98.30;;;;;;5138112;23;20449;-84
2021/04/19 10:12:00;;;;;;;14.60;13.10;;;17.00;98.30;;;;;;5137399;23;20445;-84
2021/04/19 10:14:09;;;;;;;14.27;12.73;;;16.90;98.30;;;;;;5129334;23;20449;-84
2021/04/19 10:16:12;;;;;;;14.93;13.43;;;16.80;98.30;;;;;;5123779;23;20505;-84
2021/04/19 10:18:15;;;;;;;13.17;11.87;;;16.90;98.30;;;;;;5127841;23;20464;-84
2021/04/19 10:20:21;;;;;;;14.23;12.60;;;17.20;98.30;;;;;;5119894;23;20468;-84
2021/04/19 10:22:23;;;;;;;14.57;13.07;;;17.20;98.30;;;;;;5120340;23;20449;-85
2021/04/19 10:24:26;;;;;;;13.50;12.10;;;17.40;98.30;;;;;;5119209;23;20457;-84
2021/04/19 10:26:38;;;;;;;15.33;13.73;;;17.60;98.10;;;;;;5119034;23;20823;-83
2021/04/19 10:28:43;;;;;;;15.80;13.20;;;16.80;98.30;;;;;;5119482;23;21009;-84
2021/04/19 10:30:45;;;;;;;15.13;13.53;;;17.10;98.30;;;;;;5127592;23;20452;-84
2021/04/19 10:32:48;;;;;;;14.07;12.67;;;17.40;98.30;;;;;;5128759;23;20452;-84
2021/04/19 10:34:55;;;;;;;14.47;13.07;;;17.50;98.30;;;;;;5127000;23;20759;-84
2021/04/19 10:36:59;;;;;;;13.87;12.47;;;17.70;98.30;;;;;;5125706;23;20508;-83
2021/04/19 10:39:15;;;;;;;14.27;12.87;;;18.00;97.90;;;;;;5125880;23;20481;-83
2021/04/19 10:41:29;;;;;;;13.50;12.07;;;18.20;96.90;;;;;;5117591;23;20458;-84